Aviation Digital Data Service (ADDS)

Output produced by METARs form (0740 UTC 23 April 2018)
found at http://aviationweather.gov/adds/metars/
 
METAR text: LFLU 230730Z AUTO 21008KT CAVOK 17/10 Q1018
Conditions at: LFLU (VALENCE-CHABEUIL, FR) observed 0730 UTC 23 April 2018
Temperature: 17.0°C (63°F)
Dewpoint: 10.0°C (50°F) [RH = 63%]
Pressure (altimeter): 30.06 inches Hg (1018.0 mb)
Winds: from the SSW (210 degrees) at 9 MPH (8 knots; 4.2 m/s)
Visibility: 6 or more miles (10+ km)
Ceiling: ceiling and visibility are OK
Clouds: unknown
Weather: no significant weather observed at this time